NCAR-RAP Real-Time Weather Data

Output produced by METARs form (16 August 2018  19:23 UTC)
found at http://weather.rap.ucar.edu/surface/
 
ROMY 161100Z 20013KT 9999 FEW008 SCT013 BKN027 27/25 Q1001
ROMY 161000Z 21016KT 9999 FEW010 SCT020 BKN/// 26/25 Q1001
ROMY 160900Z 20013KT 9999 SCT011 BKN020 27/25 Q1001
ROMY 160800Z 21011KT 9999 -SHRA FEW009 SCT014 BKN020 26/25 Q1000
ROMY 160700Z 22013KT 9999 -SHRA FEW008 SCT020 BKN040 26/25 Q1000
ROMY 160600Z 23014KT 6000 -SHRA FEW007 SCT012 BKN030 26/25 Q1001
ROMY 160500Z 22014KT 8000 -SHRA FEW004 SCT007 BKN035 25/24 Q1001
ROMY 160400Z 17011KT 9999 -RA FEW006 BKN015 BKN035 27/25 Q1002
ROMY 160300Z 19011KT 9999 -RA FEW006 SCT010 BKN040 27/25 Q1001
ROMY 160200Z 21013KT 7000 -SHRA FEW007 SCT017 BKN035 26/25 Q1002
ROMY 160100Z 20012KT 9999 -SHRA FEW007 SCT011 BKN041 26/25 Q1002
ROMY 160000Z 20011KT 7000 -SHRA FEW006 BKN011 BKN040 26/25 Q1002
ROMY 152300Z 19010KT 9999 -SHRA FEW007 BKN020 BKN040 26/25 Q1002
ROMY 152200Z 18010KT 9999 VCSH FEW006 SCT011 BKN040 25/25 Q1001
ROMY 152130Z 18014KT 9999 -SHRA FEW006 SCT012 BKN060 25/24 Q1001
ROMY 151100Z 22011KT 9999 -SHRA FEW006 SCT008 BKN010 26/26 Q1001
ROMY 151000Z 22012KT 9000 -SHRA FEW005 SCT008 BKN010 26/26 Q1000
ROMY 150900Z 21009KT 8000 -SHRA FEW006 BKN010 FEW015TCU BKN020 26/26 Q1001
ROMY 150836Z 22010KT 5000 SHRA BR FEW006 BKN012 FEW015CB BKN035 25/24 Q1000 RMK 1ST006 6CU012 1CB015 7SC035 A2955 CB 15KM NE MOV NE
ROMY 150828Z 22012KT 3000 R22/1800D +SHRA BR SCT006 BKN012 FEW015CB BKN035 25/24 Q1000 RMK 3ST006 6CU012 1CB015 7SC035 A2955 CB OHD MOV NE
ROMY 150819Z 22016KT 2000 R22/1000V1800U +SHRA BR FEW004 SCT006 BKN010 FEW015CB 25/24 Q1001 RMK 1ST004 3ST006 6CU010 2CB015 A2956 CB OHD MOV NE
ROMY 150813Z 23019KT 1500 R22/1100N +SHRA BR FEW004 SCT006 BKN010 FEW015CB 24/24 Q1001 RMK 2ST004 3ST006 6CU010 2CB015 A2957 CB OHD MOV NE RI++
ROMY 150800Z 21018KT 1000 R22/0900VP1800U +SHRA BR FEW004 SCT008 BKN010 FEW015TCU 26/25 Q1001
ROMY 150700Z 22013KT 9000 -SHRA FEW006 SCT008 BKN010 27/26 Q1000
ROMY 150600Z 23011KT 8000 -SHRA FEW007 SCT011 BKN040 26/26 Q1000
ROMY 150500Z 23015KT 8000 -SHRA FEW006 SCT009 FEW015CB BKN020 26/26 Q1001
ROMY 150441Z 22013KT 5000 -SHRA BR FEW007 SCT014 FEW020TCU BKN040 26/25 Q1001 RMK 1ST007 4CU014 1TCU020 6SC040 A2956 TCU 15KM W MOV NE
ROMY 150419Z 22013KT 3500 SHRA BR FEW005 SCT010 FEW015TCU BKN020 26/25 Q1001 RMK 1ST005 4CU010 2TCU015 6CU020 A2957 TCU 5KM E MOV NE
ROMY 150400Z 22014KT 2500 R22/1400VP1800U +SHRA BR FEW005 SCT010 FEW015TCU BKN020 26/25 Q1001
ROMY 150343Z 23016KT 2500 R22/1200VP1800D +SHRA BR FEW008 SCT011 FEW015TCU BKN024 26/25 Q1001 RMK 1ST008 3CU011 2TCU015 6CU024 A2956 TCU OHD MOV NE
ROMY 150330Z 22014KT 3500 R22/1200VP1800D SHRA BR FEW007 SCT010 BKN016 26/25 Q1001 RMK 1ST007 3CU010 5CU016 A2957
ROMY 150300Z 21012KT 7000 -SHRA SCT007 BKN010 27/26 Q1001
ROMY 150200Z 23013KT 6000 -SHRA FEW006 SCT009 BKN041 27/26 Q1000
ROMY 150100Z 23012KT 7000 -SHRA FEW010 FEW015CB SCT023 BKN043 27/26 Q1000
ROMY 150036Z 23014KT 4000 SHRA BR FEW008 BKN011 FEW015CB BKN035 26/26 Q1000 RMK 2ST008 5CU011 1CB015 7SC035 A2956 CB 5KM NE MOV E
ROMY 150025Z 24011KT 2500 R22/1200VP1800U +SHRA BR FEW005 BKN010 FEW015CB BKN035 26/25 Q1000 RMK 2ST005 6CU010 2CB015 7SC035 A2956 CB OHD MOV E
ROMY 150004Z 25013KT 220V280 1000 R22/1000VP1800D +SHRA BR FEW006 BKN010 FEW015CB BKN020 26/25 Q1000 RMK 2ST006 5CU010 2CB015 6CU020 A2956 CB OHD MOV E RI++
ROMY 150000Z 23013KT 2500 +SHRA BR FEW004 SCT010 FEW015CB BKN020 27/26 Q1000
ROMY 142313Z 24012KT 4000 SHRA BR FEW008 BKN011 FEW015TCU 27/26 Q1000 RMK 2ST008 6CU011 2TCU015 A2954 TCU 5KM W MOV E
ROMY 142300Z 24010KT 9000 -SHRA FEW008 BKN011 BKN042 28/26 Q1000
ROMY 142200Z 25007KT 9999 VCSH FEW010 SCT070 BKN140 28/26 Q0999
ROMY 142130Z 26008KT 9999 FEW010 SCT060 BKN140 27/26 Q0999
ROMY 141100Z 11004KT 030V140 9999 FEW010 BKN/// 27/26 Q0999
ROMY 141000Z 06004KT 9999 VCSH FEW010 SCT080 BKN/// 28/26 Q0998
ROMY 140900Z 07005KT 9999 VCSH SCT013 BKN/// 29/26 Q0998
ROMY 140800Z 09004KT 050V120 9999 SCT016 BKN/// 29/26 Q0998